createdAt,value
2022-11-24T00:03:50.375Z,9.1
2022-11-24T00:13:51.391Z,9.1
2022-11-24T00:23:52.044Z,8.8
2022-11-24T00:33:52.394Z,8.8
2022-11-24T00:43:53.328Z,8.7
2022-11-24T00:53:53.968Z,8.6
2022-11-24T01:03:54.989Z,8.6
2022-11-24T01:13:55.172Z,8.5
2022-11-24T01:33:55.804Z,8.5
2022-11-24T01:53:56.655Z,8.7
2022-11-24T02:03:57.406Z,8.6
2022-11-24T02:23:58.220Z,8.7
2022-11-24T02:33:58.816Z,8.9
2022-11-24T02:43:59.091Z,8.9
2022-11-24T02:53:59.224Z,8.8
2022-11-24T03:24:01.326Z,8.7
2022-11-24T03:34:02.293Z,8.7
2022-11-24T04:04:04.525Z,8.7
2022-11-24T04:14:07.884Z,8.8
2022-11-24T04:54:07.406Z,9
2022-11-24T05:34:09.697Z,8.9
2022-11-24T05:44:09.825Z,8.9
2022-11-24T06:14:11.899Z,9.2
2022-11-24T06:24:12.834Z,9.1
2022-11-24T06:34:12.967Z,9.1
2022-11-24T06:44:13.342Z,9.1
2022-11-24T07:04:14.766Z,9.1
2022-11-24T07:24:15.799Z,9
2022-11-24T07:34:16.772Z,9
2022-11-24T08:14:19.048Z,8.9
2022-11-24T08:24:19.371Z,8.7
2022-11-24T09:14:20.567Z,8.8
2022-11-24T09:24:20.852Z,8.7
2022-11-24T09:34:21.320Z,8.7
2022-11-24T09:54:22.833Z,8.6
2022-11-24T10:14:23.267Z,8.9
2022-11-24T10:24:24.078Z,9.1
2022-11-24T10:34:24.258Z,8.7
2022-11-24T10:54:26.226Z,8.9
2022-11-24T11:14:27.150Z,9.5
2022-11-24T11:24:28.134Z,9.7
2022-11-24T11:34:30.426Z,9.9
2022-11-24T11:44:29.123Z,9.9
2022-11-24T11:54:29.299Z,9.9
2022-11-24T12:24:30.376Z,10.5
2022-11-24T12:34:30.754Z,10.5
2022-11-24T12:44:31.740Z,10.6
2022-11-24T12:54:32.123Z,10.6
2022-11-24T13:04:33.449Z,10.8
2022-11-24T13:14:33.787Z,11.3
2022-11-24T13:24:34.377Z,11.4
2022-11-24T13:34:34.535Z,11.2
2022-11-24T13:44:35.095Z,11.3
2022-11-24T13:54:35.892Z,11.3
2022-11-24T14:04:36.112Z,11.1
2022-11-24T14:14:36.883Z,11.1
2022-11-24T14:24:41.335Z,10.8
2022-11-24T14:34:38.060Z,10.9
2022-11-24T14:54:39.160Z,10.5
2022-11-24T15:05:01.325Z,10.4
2022-11-24T15:14:40.326Z,10.1
2022-11-24T15:24:40.846Z,9.9
2022-11-24T15:34:41.810Z,9.6
2022-11-24T15:44:42.068Z,9.1
2022-11-24T15:54:42.889Z,8.9
2022-11-24T16:04:43.451Z,8.7
2022-11-24T16:14:44.076Z,8.5
2022-11-24T16:24:44.402Z,8.4
2022-11-24T16:34:44.773Z,8.3
2022-11-24T16:44:45.613Z,8.3
2022-11-24T16:54:46.353Z,8.3
2022-11-24T17:04:46.776Z,8.2
2022-11-24T17:15:03.285Z,8.2
2022-11-24T17:24:48.221Z,8.1
2022-11-24T17:34:48.629Z,8.2
2022-11-24T17:44:49.011Z,8.3
2022-11-24T17:54:49.465Z,8.4
2022-11-24T18:04:49.819Z,8.4
2022-11-24T18:14:50.503Z,8.4
2022-11-24T18:24:50.544Z,8.4
2022-11-24T18:34:50.772Z,8.4
2022-11-24T18:44:54.007Z,8.4
2022-11-24T18:54:52.070Z,8.3
2022-11-24T19:04:52.881Z,8.3
2022-11-24T19:14:53.703Z,8.3
2022-11-24T19:24:54.285Z,8.2
2022-11-24T19:34:54.939Z,8
2022-11-24T19:44:56.768Z,7.9
2022-11-24T19:54:55.375Z,7.9
2022-11-24T20:04:56.398Z,7.8
2022-11-24T20:14:56.740Z,7.8
2022-11-24T20:24:57.649Z,7.8
2022-11-24T20:34:58.258Z,7.7
2022-11-24T20:44:58.858Z,7.6
2022-11-24T20:54:58.899Z,7.5
2022-11-24T21:04:59.882Z,7.5
2022-11-24T21:15:00.787Z,7.5
2022-11-24T21:25:01.405Z,7.4
2022-11-24T21:45:02.807Z,7.8
2022-11-24T21:55:03.312Z,7.7
2022-11-24T22:05:03.789Z,7.6
2022-11-24T22:15:04.073Z,7.6
2022-11-24T22:25:04.405Z,7.6
2022-11-24T22:35:05.265Z,7.6
2022-11-24T22:45:05.829Z,7.5
2022-11-24T22:55:05.901Z,7.5
2022-11-24T23:05:06.072Z,7.4
2022-11-24T23:15:06.365Z,7.4
2022-11-24T23:25:06.676Z,7.6
2022-11-24T23:35:10.977Z,7.7
2022-11-24T23:45:07.428Z,7.9
2022-11-24T23:55:07.756Z,7.9
2022-11-24T23:55:29.679Z,7.9
